Time;durP1;ratioP1;P1;durP2;ratioP2;P2;SDS_P1;SDS_P2;PMS_P1;PMS_P2;Temp;Humidity;BMP_temperature;BMP_pressure;BME280_temperature;BME280_humidity;BME280_pressure;Samples;Min_cycle;Max_cycle;Signal;HPM_P1;HPM_P2
2022/04/12 00:05:32;;;;;;;;;;;;;;;;;;;;;
2022/04/12 00:08:04;;;;;;;12.67;5.73;;;;;;;;;;4964334;28;20568;-83
2022/04/12 00:10:32;;;;;;;13.63;5.90;;;;;;;;;;5016842;28;20336;-83
2022/04/12 00:16:02;;;;;;;14.97;6.77;;;;;;;;;;4954427;28;20291;-83
2022/04/12 00:21:14;;;;;;;15.10;5.97;;;;;;;;;;5015224;28;20238;-82
2022/04/12 00:23:41;;;;;;;15.07;6.43;;;;;;;;;;5015831;28;20252;-83
2022/04/12 00:26:11;;;;;;;13.80;5.83;;;;;;;;;;5013037;28;20229;-83
2022/04/12 00:28:40;;;;;;;11.23;5.73;;;;;;;;;;5012061;28;20215;-83
2022/04/12 00:31:09;;;;;;;12.13;5.70;;;;;;;;;;5012548;28;20200;-83
2022/04/12 00:33:36;;;;;;;13.37;6.40;;;;;;;;;;5010098;28;20221;-82
2022/04/12 00:36:06;;;;;;;12.13;6.60;;;;;;;;;;5018943;28;20243;-86
2022/04/12 00:38:35;;;;;;;17.30;7.53;;;;;;;;;;5018690;28;20193;-84
2022/04/12 00:41:04;;;;;;;13.10;6.53;;;;;;;;;;5014749;28;20314;-85
2022/04/12 00:43:33;;;;;;;12.87;6.07;;;;;;;;;;5016790;28;20319;-83
2022/04/12 00:46:01;;;;;;;13.17;6.17;;;;;;;;;;5014225;28;20216;-85
2022/04/12 00:48:29;;;;;;;14.23;6.50;;;;;;;;;;5015330;28;20207;-86
2022/04/12 00:50:57;;;;;;;10.17;5.63;;;;;;;;;;5019084;28;20200;-85
2022/04/12 00:53:26;;;;;;;13.20;6.47;;;;;;;;;;5013345;28;20224;-85
2022/04/12 00:55:53;;;;;;;11.00;5.33;;;;;;;;;;5017070;28;20200;-86
2022/04/12 00:58:20;;;;;;;14.40;6.10;;;;;;;;;;5017105;28;20235;-86
2022/04/12 01:00:49;;;;;;;13.47;6.37;;;;;;;;;;5018732;28;20692;-85
2022/04/12 01:03:16;;;;;;;11.80;6.00;;;;;;;;;;5018302;28;20274;-83
2022/04/12 01:05:45;;;;;;;11.90;6.27;;;;;;;;;;5019360;28;20196;-86
2022/04/12 01:08:12;;;;;;;12.67;6.40;;;;;;;;;;5013571;28;20728;-85
2022/04/12 01:10:39;;;;;;;13.53;6.63;;;;;;;;;;5014011;28;20561;-84
2022/04/12 01:13:08;;;;;;;14.30;6.47;;;;;;;;;;5014675;28;20228;-84
2022/04/12 01:15:36;;;;;;;13.73;6.57;;;;;;;;;;5009985;28;20292;-84
2022/04/12 01:18:03;;;;;;;16.17;6.60;;;;;;;;;;5009156;28;20205;-84
2022/04/12 01:20:30;;;;;;;13.90;5.80;;;;;;;;;;5013731;28;20240;-83
2022/04/12 01:23:00;;;;;;;11.53;5.63;;;;;;;;;;5015930;28;20231;-85
2022/04/12 01:25:29;;;;;;;11.53;6.07;;;;;;;;;;5015373;28;20201;-84
2022/04/12 01:27:56;;;;;;;14.03;6.27;;;;;;;;;;5011410;28;20271;-84
2022/04/12 01:30:26;;;;;;;16.43;5.97;;;;;;;;;;5012535;28;21021;-84
2022/04/12 01:32:53;;;;;;;11.70;6.00;;;;;;;;;;5012974;28;20224;-85
2022/04/12 01:35:20;;;;;;;12.73;6.23;;;;;;;;;;5013427;28;20231;-82
2022/04/12 01:37:47;;;;;;;10.83;6.10;;;;;;;;;;5008265;28;20236;-83
2022/04/12 01:40:14;;;;;;;12.13;5.63;;;;;;;;;;5015421;28;20224;-83
2022/04/12 01:42:43;;;;;;;12.57;5.63;;;;;;;;;;5010665;28;20230;-83
2022/04/12 01:45:11;;;;;;;13.20;6.17;;;;;;;;;;5006163;28;20295;-84
2022/04/12 01:47:38;;;;;;;14.23;6.67;;;;;;;;;;5007548;28;20211;-85
2022/04/12 01:50:06;;;;;;;14.37;7.00;;;;;;;;;;5010586;28;20208;-84
2022/04/12 01:52:33;;;;;;;10.43;6.00;;;;;;;;;;5017003;28;20282;-83
2022/04/12 01:55:02;;;;;;;15.23;5.97;;;;;;;;;;5011534;28;20230;-84
2022/04/12 01:57:29;;;;;;;11.70;5.77;;;;;;;;;;5009659;28;20215;-83
2022/04/12 01:59:58;;;;;;;13.90;6.07;;;;;;;;;;5011724;28;20289;-85
2022/04/12 02:02:25;;;;;;;15.93;6.87;;;;;;;;;;5012886;28;20606;-85
2022/04/12 02:04:52;;;;;;;16.17;5.77;;;;;;;;;;5015693;28;20578;-86
2022/04/12 02:07:22;;;;;;;14.17;6.50;;;;;;;;;;5008173;28;20247;-85
2022/04/12 02:09:49;;;;;;;13.80;6.00;;;;;;;;;;5013443;28;20200;-86
2022/04/12 02:12:18;;;;;;;10.60;5.60;;;;;;;;;;4990353;28;21098;-85
2022/04/12 02:14:45;;;;;;;11.33;5.70;;;;;;;;;;5012322;28;20205;-85
2022/04/12 02:17:14;;;;;;;12.40;6.67;;;;;;;;;;5011301;28;20222;-86
2022/04/12 02:19:41;;;;;;;18.23;7.20;;;;;;;;;;5012596;28;20222;-86
2022/04/12 02:22:08;;;;;;;22.50;6.80;;;;;;;;;;5012359;28;20203;-84
2022/04/12 02:24:35;;;;;;;12.57;6.63;;;;;;;;;;5014373;28;20212;-87
2022/04/12 02:27:03;;;;;;;13.73;6.80;;;;;;;;;;5010996;28;20200;-86
2022/04/12 02:29:35;;;;;;;11.63;6.20;;;;;;;;;;5014099;28;20216;-85
2022/04/12 02:32:02;;;;;;;12.20;6.63;;;;;;;;;;5013823;28;20219;-85
2022/04/12 02:34:31;;;;;;;14.03;6.50;;;;;;;;;;5014853;28;20605;-87
2022/04/12 02:36:58;;;;;;;12.60;5.70;;;;;;;;;;5015515;28;20254;-84
2022/04/12 02:39:25;;;;;;;9.83;5.40;;;;;;;;;;5014165;28;20236;-85
2022/04/12 02:41:52;;;;;;;11.50;5.60;;;;;;;;;;5017184;28;20318;-87
2022/04/12 02:44:19;;;;;;;10.73;5.33;;;;;;;;;;5015814;28;20562;-87
2022/04/12 02:46:47;;;;;;;11.70;5.63;;;;;;;;;;5012049;28;20214;-84
2022/04/12 02:49:14;;;;;;;11.10;5.43;;;;;;;;;;5011302;28;20326;-86
2022/04/12 02:51:42;;;;;;;15.97;6.43;;;;;;;;;;5012585;28;20258;-84
2022/04/12 02:54:10;;;;;;;15.27;6.90;;;;;;;;;;5009286;28;20990;-86
2022/04/12 02:56:37;;;;;;;12.30;6.67;;;;;;;;;;5015955;28;20217;-87
2022/04/12 02:59:04;;;;;;;12.30;6.90;;;;;;;;;;5017249;28;20228;-86
2022/04/12 03:01:31;;;;;;;17.93;6.90;;;;;;;;;;5012109;28;20217;-85
2022/04/12 03:03:59;;;;;;;14.63;6.20;;;;;;;;;;5042307;22;20290;-81
2022/04/12 03:06:26;;;;;;;14.67;6.53;;;;;;;;;;5024174;28;20215;-80
2022/04/12 03:08:54;;;;;;;15.90;6.80;;;;;;;;;;5021123;28;20711;-81
2022/04/12 03:17:34;;;;;;;19.63;6.57;;;;;;;;;;5015180;28;20223;-81
2022/04/12 03:20:02;;;;;;;17.90;7.03;;;;;;;;;;5019815;28;20220;-81
2022/04/12 03:22:29;;;;;;;13.07;5.87;;;;;;;;;;5022809;28;20231;-81
2022/04/12 03:24:58;;;;;;;11.37;6.07;;;;;;;;;;5028558;28;20263;-82
2022/04/12 03:27:32;;;;;;;14.30;6.07;;;;;;;;;;5023251;28;20240;-82
2022/04/12 03:30:08;;;;;;;16.63;6.43;;;;;;;;;;5027470;28;20671;-82
2022/04/12 03:32:35;;;;;;;15.67;7.33;;;;;;;;;;5029031;28;20230;-82
2022/04/12 03:35:02;;;;;;;14.30;7.20;;;;;;;;;;5020547;28;20238;-81
2022/04/12 03:37:47;;;;;;;11.87;6.63;;;;;;;;;;5022791;28;20200;-81
2022/04/12 03:40:27;;;;;;;24.00;7.77;;;;;;;;;;5027139;28;20240;-81
2022/04/12 03:45:53;;;;;;;16.77;6.90;;;;;;;;;;5016018;28;20197;-81
2022/04/12 03:48:20;;;;;;;15.73;7.73;;;;;;;;;;5009798;28;20300;-81
2022/04/12 03:50:47;;;;;;;20.80;7.33;;;;;;;;;;5015577;28;20287;-81
2022/04/12 03:53:14;;;;;;;16.37;6.90;;;;;;;;;;5016158;28;20294;-81
2022/04/12 03:55:46;;;;;;;20.93;7.27;;;;;;;;;;5023023;28;20469;-81
2022/04/12 04:01:27;;;;;;;12.37;6.80;;;;;;;;;;5014056;28;20260;-82
2022/04/12 04:07:02;;;;;;;14.17;6.00;;;;;;;;;;4992734;28;20211;-81
2022/04/12 04:09:29;;;;;;;12.77;6.00;;;;;;;;;;5010223;28;20702;-82
2022/04/12 04:15:24;;;;;;;15.80;7.17;;;;;;;;;;4969556;28;20377;-82
2022/04/12 04:17:52;;;;;;;13.13;6.60;;;;;;;;;;5019582;28;20231;-82
2022/04/12 04:23:04;;;;;;;12.47;6.37;;;;;;;;;;5020979;28;20766;-82
2022/04/12 04:25:43;;;;;;;14.57;6.37;;;;;;;;;;5014180;28;20204;-82
2022/04/12 04:28:12;;;;;;;12.23;6.10;;;;;;;;;;5022975;28;20211;-82
2022/04/12 04:30:44;;;;;;;13.10;6.00;;;;;;;;;;5015669;28;20196;-82
2022/04/12 04:33:11;;;;;;;16.47;6.70;;;;;;;;;;5017714;28;20216;-81
2022/04/12 04:35:38;;;;;;;14.20;6.17;;;;;;;;;;5015073;28;20211;-81
2022/04/12 04:38:06;;;;;;;11.23;6.00;;;;;;;;;;5007880;28;20211;-81
2022/04/12 04:40:33;;;;;;;24.13;7.13;;;;;;;;;;5009696;28;20216;-81
2022/04/12 04:43:58;;;;;;;22.50;7.20;;;;;;;;;;5014574;28;20676;-82
2022/04/12 04:46:26;;;;;;;16.17;6.20;;;;;;;;;;4996115;28;20281;-82
2022/04/12 04:48:53;;;;;;;23.17;7.03;;;;;;;;;;5018948;28;20219;-82
2022/04/12 04:51:20;;;;;;;16.80;6.63;;;;;;;;;;5011070;28;20260;-82
2022/04/12 04:53:56;;;;;;;17.60;7.30;;;;;;;;;;5014457;28;20978;-82
2022/04/12 04:56:23;;;;;;;18.53;7.30;;;;;;;;;;5015886;28;20212;-82
2022/04/12 04:58:50;;;;;;;16.80;6.70;;;;;;;;;;5009927;28;20208;-82
2022/04/12 05:01:17;;;;;;;15.43;6.27;;;;;;;;;;5017176;28;20250;-82
2022/04/12 05:03:46;;;;;;;17.53;7.97;;;;;;;;;;5019016;28;20224;-82
2022/04/12 05:06:13;;;;;;;14.20;6.23;;;;;;;;;;5024919;28;20207;-82
2022/04/12 05:08:40;;;;;;;16.20;6.73;;;;;;;;;;5016377;28;20591;-82
2022/04/12 05:11:07;;;;;;;11.70;6.13;;;;;;;;;;5022480;28;20644;-82
2022/04/12 05:16:31;;;;;;;15.77;6.70;;;;;;;;;;5017600;28;20217;-82
2022/04/12 05:19:00;;;;;;;15.80;5.73;;;;;;;;;;5014563;28;20217;-82
2022/04/12 05:21:27;;;;;;;15.70;6.13;;;;;;;;;;5015480;28;20224;-82
2022/04/12 05:23:54;;;;;;;15.93;6.70;;;;;;;;;;5024593;28;20293;-82
2022/04/12 05:26:44;;;;;;;15.80;6.57;;;;;;;;;;5030573;28;20243;-82
2022/04/12 05:29:27;;;;;;;17.57;6.50;;;;;;;;;;5020695;28;20208;-82
2022/04/12 05:31:58;;;;;;;19.20;6.73;;;;;;;;;;5015711;28;20201;-82
2022/04/12 05:34:26;;;;;;;13.97;7.10;;;;;;;;;;5014977;28;20220;-82
2022/04/12 05:36:53;;;;;;;15.47;7.40;;;;;;;;;;5014034;28;20732;-82
2022/04/12 05:39:21;;;;;;;12.37;6.37;;;;;;;;;;5014191;28;20208;-82
2022/04/12 05:41:48;;;;;;;10.63;6.47;;;;;;;;;;5020180;28;20235;-82
2022/04/12 05:44:15;;;;;;;13.10;6.43;;;;;;;;;;5017891;28;20255;-82
2022/04/12 05:46:42;;;;;;;12.90;6.23;;;;;;;;;;5024437;28;20207;-82
2022/04/12 05:49:09;;;;;;;12.23;6.20;;;;;;;;;;5021958;28;20266;-82
2022/04/12 05:51:38;;;;;;;14.27;5.50;;;;;;;;;;5011048;28;20196;-82
2022/04/12 05:54:05;;;;;;;14.10;5.17;;;;;;;;;;5012449;28;20243;-82
2022/04/12 05:56:32;;;;;;;14.67;6.47;;;;;;;;;;5016054;28;20205;-82
2022/04/12 05:59:02;;;;;;;9.93;5.63;;;;;;;;;;5015246;28;20263;-82
2022/04/12 06:01:30;;;;;;;15.13;5.53;;;;;;;;;;5020624;28;20295;-82
2022/04/12 06:04:00;;;;;;;10.77;5.47;;;;;;;;;;5017472;28;20609;-82
2022/04/12 06:09:30;;;;;;;10.97;5.10;;;;;;;;;;5017922;28;20211;-83
2022/04/12 06:11:57;;;;;;;16.67;6.00;;;;;;;;;;5020111;28;20224;-84
2022/04/12 06:14:24;;;;;;;16.03;6.03;;;;;;;;;;5020128;28;20224;-84
2022/04/12 06:16:53;;;;;;;12.57;5.80;;;;;;;;;;5023059;28;20664;-85
2022/04/12 06:19:21;;;;;;;14.10;5.80;;;;;;;;;;5022218;28;20207;-84
2022/04/12 06:21:48;;;;;;;11.50;6.00;;;;;;;;;;5022948;28;20306;-84
2022/04/12 06:24:15;;;;;;;12.73;6.20;;;;;;;;;;5027964;28;20748;-84
2022/04/12 06:26:46;;;;;;;9.90;5.37;;;;;;;;;;5022279;28;20195;-84
2022/04/12 06:29:13;;;;;;;13.03;5.70;;;;;;;;;;5029434;28;20679;-84
2022/04/12 06:31:44;;;;;;;14.13;5.53;;;;;;;;;;5027259;28;20496;-84
2022/04/12 06:34:11;;;;;;;13.30;5.70;;;;;;;;;;5021941;28;20224;-84
2022/04/12 06:36:38;;;;;;;12.33;5.63;;;;;;;;;;5015958;28;20191;-84
2022/04/12 06:39:05;;;;;;;10.37;5.53;;;;;;;;;;5020583;28;20231;-84
2022/04/12 06:41:33;;;;;;;8.90;5.40;;;;;;;;;;5018814;28;20654;-82
2022/04/12 06:44:15;;;;;;;7.67;5.00;;;;;;;;;;5025093;28;20223;-83
2022/04/12 06:46:45;;;;;;;12.60;4.60;;;;;;;;;;5014078;28;20216;-82
2022/04/12 06:49:12;;;;;;;7.07;4.63;;;;;;;;;;5017103;28;20291;-82
2022/04/12 06:51:39;;;;;;;10.63;4.43;;;;;;;;;;5017477;28;20215;-81
2022/04/12 06:54:07;;;;;;;10.57;4.80;;;;;;;;;;5021572;28;20235;-82
2022/04/12 06:59:18;;;;;;;12.40;4.90;;;;;;;;;;5020646;28;20706;-82
2022/04/12 07:01:45;;;;;;;7.93;5.07;;;;;;;;;;5019823;28;20282;-82
2022/04/12 07:04:12;;;;;;;15.13;5.70;;;;;;;;;;5025283;28;20273;-82
2022/04/12 07:06:47;;;;;;;14.83;5.80;;;;;;;;;;5025084;28;20580;-82
2022/04/12 07:09:18;;;;;;;12.20;5.10;;;;;;;;;;5028846;28;20261;-82
2022/04/12 07:11:46;;;;;;;19.73;5.20;;;;;;;;;;5021680;28;20260;-82
2022/04/12 07:14:13;;;;;;;10.53;5.40;;;;;;;;;;5025441;28;20287;-82
2022/04/12 07:16:41;;;;;;;13.50;5.77;;;;;;;;;;5024728;28;20222;-82
2022/04/12 07:19:08;;;;;;;10.13;5.40;;;;;;;;;;5023273;28;20223;-82
2022/04/12 07:21:36;;;;;;;14.03;5.87;;;;;;;;;;5028474;28;20222;-82
2022/04/12 07:26:57;;;;;;;10.77;5.10;;;;;;;;;;5030207;28;20207;-82
2022/04/12 07:29:24;;;;;;;18.73;6.00;;;;;;;;;;5026419;28;20403;-82
2022/04/12 07:31:52;;;;;;;12.87;5.90;;;;;;;;;;5028120;28;20204;-82
2022/04/12 07:34:20;;;;;;;11.07;5.03;;;;;;;;;;5017376;28;20228;-82
2022/04/12 07:36:53;;;;;;;19.73;6.17;;;;;;;;;;5025796;28;20199;-82
2022/04/12 07:39:20;;;;;;;14.50;5.83;;;;;;;;;;5021782;28;20238;-82
2022/04/12 07:41:50;;;;;;;11.27;5.83;;;;;;;;;;5015781;28;20228;-82
2022/04/12 07:44:18;;;;;;;12.83;5.97;;;;;;;;;;5022242;28;20725;-82
2022/04/12 07:46:46;;;;;;;11.67;5.73;;;;;;;;;;5022035;28;20275;-82
2022/04/12 07:49:15;;;;;;;11.97;6.43;;;;;;;;;;5018237;28;20197;-82
2022/04/12 07:51:42;;;;;;;13.43;7.03;;;;;;;;;;5037902;28;20618;-82
2022/04/12 07:54:10;;;;;;;12.30;5.97;;;;;;;;;;5041629;28;20295;-82
2022/04/12 07:56:37;;;;;;;10.50;5.27;;;;;;;;;;5027714;28;20294;-83
2022/04/12 07:59:06;;;;;;;12.70;6.20;;;;;;;;;;5027138;28;20267;-83
2022/04/12 08:01:33;;;;;;;12.50;5.50;;;;;;;;;;5025024;28;20277;-82
2022/04/12 08:04:00;;;;;;;13.80;5.60;;;;;;;;;;5021674;28;20327;-83
2022/04/12 08:06:30;;;;;;;19.30;6.03;;;;;;;;;;5016009;28;20219;-82
2022/04/12 08:08:58;;;;;;;8.60;4.53;;;;;;;;;;5014262;28;20254;-83
2022/04/12 08:11:26;;;;;;;12.90;4.80;;;;;;;;;;5013095;28;20205;-83
2022/04/12 08:13:53;;;;;;;10.23;5.10;;;;;;;;;;5012915;28;20235;-82
2022/04/12 08:16:20;;;;;;;11.80;5.07;;;;;;;;;;5014001;28;20208;-83
2022/04/12 08:18:48;;;;;;;9.40;5.30;;;;;;;;;;5033107;28;20204;-82
2022/04/12 08:21:15;;;;;;;8.77;4.63;;;;;;;;;;5025674;28;20268;-82
2022/04/12 08:23:44;;;;;;;14.63;5.43;;;;;;;;;;5022970;28;20318;-82
2022/04/12 08:26:13;;;;;;;9.67;4.47;;;;;;;;;;5020849;28;20840;-82
2022/04/12 08:28:40;;;;;;;7.67;4.57;;;;;;;;;;5022845;28;20208;-82
2022/04/12 08:31:08;;;;;;;10.03;4.40;;;;;;;;;;5022704;28;20211;-82
2022/04/12 08:33:35;;;;;;;11.73;4.50;;;;;;;;;;5024284;28;20219;-83
2022/04/12 08:36:04;;;;;;;10.60;4.37;;;;;;;;;;5027989;28;20192;-83
2022/04/12 08:38:31;;;;;;;9.40;4.30;;;;;;;;;;5033830;28;20298;-83
2022/04/12 08:41:00;;;;;;;8.53;4.03;;;;;;;;;;5032480;28;20275;-83
2022/04/12 08:43:29;;;;;;;9.10;4.03;;;;;;;;;;5027619;28;20238;-83
2022/04/12 08:45:59;;;;;;;8.83;4.10;;;;;;;;;;5023697;28;20210;-83
2022/04/12 08:48:26;;;;;;;13.10;4.43;;;;;;;;;;5024303;28;20235;-84
2022/04/12 08:50:54;;;;;;;9.60;4.47;;;;;;;;;;5030102;28;20209;-83
2022/04/12 08:53:21;;;;;;;7.57;3.90;;;;;;;;;;5028891;28;20269;-82
2022/04/12 08:55:48;;;;;;;9.83;4.07;;;;;;;;;;5030399;28;20200;-81
2022/04/12 08:58:17;;;;;;;11.60;4.23;;;;;;;;;;5022339;28;20200;-81
2022/04/12 09:00:45;;;;;;;10.00;4.33;;;;;;;;;;5029876;28;20268;-82
2022/04/12 09:03:14;;;;;;;9.77;4.30;;;;;;;;;;5024726;28;20224;-82
2022/04/12 09:05:41;;;;;;;9.60;4.37;;;;;;;;;;5044746;22;20230;-79
2022/04/12 09:08:23;;;;;;;7.27;3.93;;;;;;;;;;5038351;28;20302;-79
2022/04/12 09:10:56;;;;;;;9.77;3.73;;;;;;;;;;5038346;28;20681;-79
2022/04/12 09:13:25;;;;;;;8.60;4.33;;;;;;;;;;5036740;28;20199;-78
2022/04/12 09:15:52;;;;;;;8.00;3.77;;;;;;;;;;5035910;28;20293;-79
2022/04/12 09:18:33;;;;;;;17.83;4.40;;;;;;;;;;5038422;28;20228;-79
2022/04/12 09:21:10;;;;;;;9.27;4.17;;;;;;;;;;5036753;28;20295;-79
2022/04/12 09:23:37;;;;;;;13.17;3.93;;;;;;;;;;5039763;28;20226;-79
2022/04/12 09:26:04;;;;;;;11.33;4.20;;;;;;;;;;5038782;28;20294;-79
2022/04/12 09:28:41;;;;;;;10.43;3.73;;;;;;;;;;5034958;28;20199;-79
2022/04/12 09:31:12;;;;;;;13.47;4.20;;;;;;;;;;5041890;28;20314;-78
2022/04/12 09:33:40;;;;;;;9.67;4.10;;;;;;;;;;5045966;28;20200;-79
2022/04/12 09:36:07;;;;;;;8.33;3.93;;;;;;;;;;5042201;28;20211;-78
2022/04/12 09:38:38;;;;;;;6.77;3.80;;;;;;;;;;5045650;28;20195;-78
2022/04/12 09:41:15;;;;;;;9.27;4.17;;;;;;;;;;5040727;28;20540;-78
2022/04/12 09:43:53;;;;;;;9.70;4.27;;;;;;;;;;5041290;28;20273;-79
2022/04/12 09:46:20;;;;;;;8.13;3.93;;;;;;;;;;5041204;28;20229;-80
2022/04/12 09:48:48;;;;;;;9.63;4.23;;;;;;;;;;5041256;28;20226;-79
2022/04/12 09:51:15;;;;;;;8.43;4.00;;;;;;;;;;5038905;28;20628;-79
2022/04/12 09:53:45;;;;;;;12.70;4.57;;;;;;;;;;5036088;28;20510;-80
2022/04/12 09:56:15;;;;;;;8.10;3.60;;;;;;;;;;5043466;28;20211;-78
2022/04/12 09:58:43;;;;;;;8.70;3.80;;;;;;;;;;5040196;28;20212;-79
2022/04/12 10:01:12;;;;;;;9.00;3.90;;;;;;;;;;5041141;28;20693;-79
2022/04/12 10:03:39;;;;;;;12.83;4.03;;;;;;;;;;5037876;28;20224;-79
2022/04/12 10:06:07;;;;;;;9.87;4.17;;;;;;;;;;5038387;28;20598;-79
2022/04/12 10:08:37;;;;;;;8.50;4.10;;;;;;;;;;5039075;28;20206;-78
2022/04/12 10:11:04;;;;;;;7.47;3.57;;;;;;;;;;5038561;28;20247;-78
2022/04/12 10:13:32;;;;;;;6.67;3.50;;;;;;;;;;5038319;28;20203;-78
2022/04/12 10:16:00;;;;;;;7.50;3.60;;;;;;;;;;5041097;28;20202;-77
2022/04/12 10:18:29;;;;;;;7.53;3.37;;;;;;;;;;5037856;28;20203;-79
2022/04/12 10:20:56;;;;;;;8.10;4.10;;;;;;;;;;5038036;28;20306;-79
2022/04/12 10:23:26;;;;;;;8.90;3.60;;;;;;;;;;5042097;28;20259;-78
2022/04/12 10:25:54;;;;;;;7.07;3.50;;;;;;;;;;5033715;28;20231;-76
2022/04/12 10:28:22;;;;;;;6.93;3.30;;;;;;;;;;5038170;28;20206;-77
2022/04/12 10:30:49;;;;;;;10.07;3.67;;;;;;;;;;5036104;28;20273;-79
2022/04/12 10:33:21;;;;;;;6.97;3.60;;;;;;;;;;5043321;28;20213;-78
2022/04/12 10:35:59;;;;;;;8.27;3.90;;;;;;;;;;5037941;28;20215;-79
2022/04/12 10:38:27;;;;;;;6.67;3.30;;;;;;;;;;5039017;28;20227;-78
2022/04/12 10:40:56;;;;;;;6.67;3.30;;;;;;;;;;5041665;28;20238;-78
2022/04/12 10:43:24;;;;;;;6.77;3.07;;;;;;;;;;5045468;28;20247;-78
2022/04/12 10:45:52;;;;;;;9.30;3.70;;;;;;;;;;5032953;28;20234;-78
2022/04/12 10:48:21;;;;;;;6.83;3.63;;;;;;;;;;5038521;28;20603;-79
2022/04/12 10:50:48;;;;;;;7.20;3.33;;;;;;;;;;5033521;28;20325;-78
2022/04/12 10:53:17;;;;;;;6.43;3.20;;;;;;;;;;5039477;28;20579;-79
2022/04/12 10:55:44;;;;;;;8.27;3.10;;;;;;;;;;5040053;28;20590;-78
2022/04/12 10:58:13;;;;;;;5.33;2.80;;;;;;;;;;5038587;28;20195;-79
2022/04/12 11:00:42;;;;;;;9.57;3.13;;;;;;;;;;5034668;28;20727;-80
2022/04/12 11:03:11;;;;;;;5.10;2.93;;;;;;;;;;5035512;28;20224;-80
2022/04/12 11:06:05;;;;;;;8.10;3.20;;;;;;;;;;5043124;28;20211;-80
2022/04/12 11:08:56;;;;;;;5.73;2.80;;;;;;;;;;5047564;28;20207;-77
2022/04/12 11:11:28;;;;;;;7.30;3.10;;;;;;;;;;5022389;28;20317;-79
2022/04/12 11:13:56;;;;;;;4.30;2.70;;;;;;;;;;5038552;28;20736;-79
2022/04/12 11:16:26;;;;;;;6.97;2.60;;;;;;;;;;5044084;28;20207;-79
2022/04/12 11:18:54;;;;;;;9.53;3.20;;;;;;;;;;5041001;28;20215;-79
2022/04/12 11:21:23;;;;;;;8.50;3.07;;;;;;;;;;5041687;28;20243;-79
2022/04/12 11:23:51;;;;;;;4.83;2.33;;;;;;;;;;5041833;28;20677;-79
2022/04/12 11:26:36;;;;;;;4.23;2.43;;;;;;;;;;5039830;28;20200;-79
2022/04/12 11:29:03;;;;;;;5.47;2.70;;;;;;;;;;5045760;28;20196;-77
2022/04/12 11:31:30;;;;;;;8.20;3.10;;;;;;;;;;5037548;28;20237;-79
2022/04/12 11:33:59;;;;;;;5.80;3.13;;;;;;;;;;5038391;28;20203;-79
2022/04/12 11:36:26;;;;;;;6.27;3.07;;;;;;;;;;5048670;28;20210;-79
2022/04/12 11:38:53;;;;;;;6.03;2.60;;;;;;;;;;5041293;28;20239;-80
2022/04/12 11:41:20;;;;;;;13.27;2.90;;;;;;;;;;5044438;28;20606;-79
2022/04/12 11:43:49;;;;;;;6.57;2.30;;;;;;;;;;5043456;28;20223;-77
2022/04/12 11:46:18;;;;;;;5.30;2.33;;;;;;;;;;5044838;28;20227;-79
2022/04/12 11:48:45;;;;;;;5.73;2.53;;;;;;;;;;5047668;28;20298;-79
2022/04/12 11:51:12;;;;;;;6.47;2.23;;;;;;;;;;5041374;28;20735;-78
2022/04/12 11:53:47;;;;;;;6.87;2.47;;;;;;;;;;5042098;28;20227;-78
2022/04/12 11:56:15;;;;;;;3.37;1.93;;;;;;;;;;5035410;28;20684;-79
2022/04/12 11:58:42;;;;;;;4.90;2.40;;;;;;;;;;5034496;28;20366;-79
2022/04/12 12:01:13;;;;;;;6.10;2.57;;;;;;;;;;5036519;28;20728;-79
2022/04/12 12:03:42;;;;;;;4.63;2.30;;;;;;;;;;5036989;28;20215;-79
2022/04/12 12:06:10;;;;;;;5.57;2.50;;;;;;;;;;5036427;28;20215;-79
2022/04/12 12:08:37;;;;;;;5.13;2.27;;;;;;;;;;5047610;28;20253;-80
2022/04/12 12:11:13;;;;;;;5.07;2.50;;;;;;;;;;5036103;28;20268;-79
2022/04/12 12:13:41;;;;;;;8.70;2.70;;;;;;;;;;5040830;28;20226;-79
2022/04/12 12:16:16;;;;;;;5.23;2.50;;;;;;;;;;5039868;28;20594;-79
2022/04/12 12:18:43;;;;;;;5.40;1.97;;;;;;;;;;5028539;28;20221;-79
2022/04/12 12:21:11;;;;;;;3.13;1.83;;;;;;;;;;5034622;28;20688;-79
2022/04/12 12:23:38;;;;;;;6.30;2.30;;;;;;;;;;5042029;28;20228;-79
2022/04/12 12:26:05;;;;;;;5.03;2.27;;;;;;;;;;5040514;28;20205;-79
2022/04/12 12:28:32;;;;;;;7.07;2.90;;;;;;;;;;5044495;28;20200;-79
2022/04/12 12:31:00;;;;;;;8.27;2.37;;;;;;;;;;5037846;28;20250;-79
2022/04/12 12:33:38;;;;;;;5.97;2.40;;;;;;;;;;5047163;28;20195;-79
2022/04/12 12:36:17;;;;;;;7.27;2.30;;;;;;;;;;5038382;28;20215;-80
2022/04/12 12:38:45;;;;;;;6.67;2.73;;;;;;;;;;5031819;28;20200;-80
2022/04/12 12:41:13;;;;;;;6.40;2.60;;;;;;;;;;5044770;28;20319;-79
2022/04/12 12:43:41;;;;;;;6.00;2.60;;;;;;;;;;5041722;28;20226;-79
2022/04/12 12:46:09;;;;;;;4.97;2.30;;;;;;;;;;5038742;28;20299;-79
2022/04/12 12:48:37;;;;;;;4.33;2.30;;;;;;;;;;5035963;28;20669;-78
2022/04/12 12:51:05;;;;;;;6.27;2.50;;;;;;;;;;5033633;28;20725;-79
2022/04/12 12:53:34;;;;;;;5.33;2.37;;;;;;;;;;5035094;28;20256;-79
2022/04/12 12:56:01;;;;;;;6.67;2.27;;;;;;;;;;5035121;28;20219;-79
2022/04/12 12:58:30;;;;;;;7.50;2.50;;;;;;;;;;5037485;28;20204;-79
2022/04/12 13:01:02;;;;;;;7.77;2.00;;;;;;;;;;5040538;28;20317;-79
2022/04/12 13:03:29;;;;;;;4.03;2.27;;;;;;;;;;5036245;28;20253;-78
2022/04/12 13:05:59;;;;;;;6.17;2.43;;;;;;;;;;5041767;28;20211;-79
2022/04/12 13:08:27;;;;;;;4.20;2.33;;;;;;;;;;5034993;28;20230;-78
2022/04/12 13:10:56;;;;;;;5.33;2.53;;;;;;;;;;5035509;28;20282;-79
2022/04/12 13:13:25;;;;;;;5.57;2.30;;;;;;;;;;5035850;28;20349;-79
2022/04/12 13:15:52;;;;;;;2.93;1.70;;;;;;;;;;5030583;28;20203;-78
2022/04/12 13:18:21;;;;;;;4.40;2.03;;;;;;;;;;5038754;28;20670;-79
2022/04/12 13:20:48;;;;;;;3.13;1.73;;;;;;;;;;5037676;28;20224;-79
2022/04/12 13:23:17;;;;;;;5.03;1.97;;;;;;;;;;5036401;28;20203;-79
2022/04/12 13:25:44;;;;;;;7.37;2.03;;;;;;;;;;5039179;28;20294;-79
2022/04/12 13:28:11;;;;;;;3.43;1.90;;;;;;;;;;5037844;28;20230;-78
2022/04/12 13:30:38;;;;;;;4.53;1.90;;;;;;;;;;5045514;28;20310;-79
2022/04/12 13:33:06;;;;;;;4.63;1.63;;;;;;;;;;5042740;28;20212;-78
2022/04/12 13:35:33;;;;;;;3.77;1.90;;;;;;;;;;5037316;28;20299;-79
2022/04/12 13:38:00;;;;;;;6.00;1.60;;;;;;;;;;5037415;28;20644;-79
2022/04/12 13:40:30;;;;;;;9.73;1.97;;;;;;;;;;5037945;28;20341;-79
2022/04/12 13:42:58;;;;;;;7.63;1.80;;;;;;;;;;5035512;28;20207;-79
2022/04/12 13:45:25;;;;;;;4.33;1.63;;;;;;;;;;5042019;28;20227;-79
2022/04/12 13:47:53;;;;;;;4.50;1.70;;;;;;;;;;5039614;28;20206;-79
2022/04/12 13:50:20;;;;;;;6.33;1.67;;;;;;;;;;5042033;28;20715;-77
2022/04/12 13:52:47;;;;;;;7.83;1.80;;;;;;;;;;5041733;28;20213;-79
2022/04/12 13:55:14;;;;;;;4.33;1.43;;;;;;;;;;5035384;28;20231;-77
2022/04/12 13:57:44;;;;;;;5.10;1.70;;;;;;;;;;5043752;28;20293;-78
2022/04/12 14:00:12;;;;;;;4.73;1.77;;;;;;;;;;5041072;28;20230;-78
2022/04/12 14:02:39;;;;;;;4.67;1.70;;;;;;;;;;5045930;28;20309;-77
2022/04/12 14:05:06;;;;;;;4.10;1.50;;;;;;;;;;5042080;28;20724;-77
2022/04/12 14:07:34;;;;;;;3.70;1.40;;;;;;;;;;5038773;28;20207;-78
2022/04/12 14:10:05;;;;;;;5.93;1.80;;;;;;;;;;5044088;28;20223;-78
2022/04/12 14:12:34;;;;;;;2.77;1.60;;;;;;;;;;5047566;28;20211;-79
2022/04/12 14:15:03;;;;;;;3.57;1.57;;;;;;;;;;5043119;28;20245;-78
2022/04/12 14:17:30;;;;;;;5.13;1.50;;;;;;;;;;5039437;28;20278;-79
2022/04/12 14:19:57;;;;;;;6.30;1.60;;;;;;;;;;5035100;28;20324;-79
2022/04/12 14:22:25;;;;;;;6.13;1.20;;;;;;;;;;5037749;28;20752;-79
2022/04/12 14:24:52;;;;;;;2.90;1.43;;;;;;;;;;5040318;28;20223;-78
2022/04/12 14:27:19;;;;;;;4.00;1.50;;;;;;;;;;5045255;28;20823;-78
2022/04/12 14:29:48;;;;;;;4.83;1.40;;;;;;;;;;5035694;28;20221;-79
2022/04/12 14:32:18;;;;;;;3.53;1.30;;;;;;;;;;5041164;28;20575;-80
2022/04/12 14:34:45;;;;;;;4.77;1.43;;;;;;;;;;5035312;28;20238;-78
2022/04/12 14:37:12;;;;;;;2.40;1.30;;;;;;;;;;5036447;28;20210;-77
2022/04/12 14:39:41;;;;;;;2.27;1.30;;;;;;;;;;5037141;28;20221;-78
2022/04/12 14:42:08;;;;;;;2.53;1.30;;;;;;;;;;5034505;28;20203;-80
2022/04/12 14:44:36;;;;;;;3.57;1.30;;;;;;;;;;5035088;28;20735;-79
2022/04/12 14:47:03;;;;;;;2.97;1.23;;;;;;;;;;5036979;28;20207;-80
2022/04/12 14:49:32;;;;;;;5.17;1.27;;;;;;;;;;5044466;28;20210;-80
2022/04/12 14:51:59;;;;;;;4.47;1.33;;;;;;;;;;5042622;28;20236;-79
2022/04/12 14:54:26;;;;;;;4.63;2.07;;;;;;;;;;5042930;28;20536;-79
2022/04/12 14:56:54;;;;;;;4.33;1.40;;;;;;;;;;5036242;28;20646;-78
2022/04/12 14:59:22;;;;;;;2.23;1.00;;;;;;;;;;5037339;28;20203;-79
2022/04/12 15:01:49;;;;;;;4.43;1.20;;;;;;;;;;5038032;28;20203;-77
2022/04/12 15:04:16;;;;;;;2.93;1.30;;;;;;;;;;5038741;28;20565;-78
2022/04/12 15:06:53;;;;;;;6.43;1.53;;;;;;;;;;5082903;22;20312;-81
2022/04/12 15:09:20;;;;;;;4.00;1.50;;;;;;;;;;5069234;28;20228;-82
2022/04/12 15:11:47;;;;;;;5.23;1.23;;;;;;;;;;5066122;28;20241;-82
2022/04/12 15:14:15;;;;;;;7.07;1.10;;;;;;;;;;5076283;28;20234;-83
2022/04/12 15:16:43;;;;;;;4.80;1.37;;;;;;;;;;5047547;28;20243;-80
2022/04/12 15:25:06;;;;;;;4.27;1.13;;;;;;;;;;5045136;28;20287;-82
2022/04/12 15:27:33;;;;;;;3.47;1.30;;;;;;;;;;5050533;28;20229;-83
2022/04/12 15:30:00;;;;;;;7.43;1.40;;;;;;;;;;5045260;28;20573;-83
2022/04/12 15:32:28;;;;;;;3.80;1.20;;;;;;;;;;5051568;28;20215;-82
2022/04/12 15:37:46;;;;;;;3.83;1.07;;;;;;;;;;5058708;28;20221;-82